Time;durP1;ratioP1;P1;durP2;ratioP2;P2;SDS_P1;SDS_P2;PMS_P1;PMS_P2;Temp;Humidity;BMP_temperature;BMP_pressure;BME280_temperature;BME280_humidity;BME280_pressure;Samples;Min_cycle;Max_cycle;Signal;HPM_P1;HPM_P2
2023/07/31 00:01:44;;;;;;;6.65;2.53;;;;;;;13.17;81.57;96042.78;2057473;28;20043;-67
2023/07/31 00:03:54;;;;;;;6.65;2.90;;;;;;;13.10;81.97;96037.09;2033629;29;20064;-67
2023/07/31 00:07:19;;;;;;;3.95;2.30;;;;;;;13.13;81.92;96049.13;2063420;28;20057;-67
2023/07/31 00:08:52;;;;;;;4.70;2.22;;;;;;;13.09;82.15;96038.00;2074108;28;20049;-67
2023/07/31 00:12:28;;;;;;;3.85;2.10;;;;;;;13.20;82.03;96034.78;2050278;28;20044;-67
2023/07/31 00:15:10;;;;;;;5.43;2.13;;;;;;;13.19;81.90;96035.72;2066628;28;20098;-67
2023/07/31 00:17:08;;;;;;;6.50;2.45;;;;;;;13.06;82.91;96027.75;2073298;28;20062;-67
2023/07/31 00:18:58;;;;;;;4.90;2.80;;;;;;;12.97;83.00;96034.34;2002153;29;20076;-66
2023/07/31 00:33:02;;;;;;;;;;;;;;;;;;;;;
2023/07/31 00:34:42;;;;;;;5.53;2.55;;;;;;;12.82;84.50;96027.38;1996195;29;20073;-67
2023/07/31 00:36:40;;;;;;;3.45;2.20;;;;;;;12.84;84.20;96035.94;1994217;29;20056;-67
2023/07/31 00:40:41;;;;;;;6.88;2.95;;;;;;;12.73;84.85;96017.47;1998224;29;20050;-67
2023/07/31 00:42:52;;;;;;;3.90;2.45;;;;;;;12.80;85.15;96019.66;2001743;29;20050;-66
2023/07/31 00:47:18;;;;;;;5.70;2.88;;;;;;;12.85;84.35;96021.13;2001258;29;20065;-66
2023/07/31 00:55:12;;;;;;;;;;;;;;;;;;;;;
2023/07/31 01:06:05;;;;;;;4.22;2.83;;;;;;;12.78;85.52;96016.28;2011043;29;20053;-67
2023/07/31 01:11:53;;;;;;;;;;;;;;;;;;;;;
2023/07/31 01:14:36;;;;;;;8.40;3.33;;;;;;;12.62;87.60;96018.06;2015458;29;20049;-67
2023/07/31 01:21:53;;;;;;;6.60;3.38;;;;;;;12.46;89.09;96015.44;2019840;29;20059;-67
2023/07/31 01:26:24;;;;;;;6.82;3.55;;;;;;;12.45;89.51;96005.94;2018782;29;20065;-67
2023/07/31 01:30:50;;;;;;;6.72;3.33;;;;;;;12.50;89.66;96001.31;2053209;28;20062;-66
2023/07/31 01:33:06;;;;;;;9.70;3.50;;;;;;;12.51;89.34;95997.81;2044468;28;20054;-67
2023/07/31 01:34:30;;;;;;;6.43;3.53;;;;;;;12.54;89.05;95995.03;2059732;28;20050;-68
2023/07/31 01:36:03;;;;;;;9.77;3.75;;;;;;;12.57;89.32;95997.47;2054368;28;20051;-67
2023/07/31 01:37:31;;;;;;;6.50;3.60;;;;;;;12.62;89.17;95993.78;2070073;28;20049;-67
2023/07/31 01:39:52;;;;;;;;;;;;;;;;;;;;;
2023/07/31 01:42:07;;;;;;;9.15;3.55;;;;;;;12.71;88.54;95995.84;2003886;29;20054;-67
2023/07/31 01:43:23;;;;;;;;;;;;;;;;;;;;;
2023/07/31 01:45:35;;;;;;;8.10;4.15;;;;;;;12.73;88.65;95991.41;2025201;29;20061;-67
2023/07/31 01:50:41;;;;;;;8.35;3.28;;;;;;;12.79;88.50;95999.72;2025504;29;20033;-67
2023/07/31 01:51:43;;;;;;;6.60;3.42;;;;;;;12.78;88.19;95989.38;2024570;29;20056;-66
2023/07/31 01:52:59;;;;;;;7.40;3.75;;;;;;;12.70;88.58;95981.16;2029758;29;20079;-67
2023/07/31 01:56:22;;;;;;;8.02;3.65;;;;;;;12.80;88.46;95990.97;2039695;29;20530;-67
2023/07/31 02:00:56;;;;;;;8.90;3.75;;;;;;;12.71;88.74;95996.69;2048283;29;19918;-67
2023/07/31 02:04:29;;;;;;;8.23;4.07;;;;;;;12.66;89.42;95993.50;2032332;29;20507;-67
2023/07/31 02:06:37;;;;;;;10.85;3.60;;;;;;;12.61;89.70;95990.31;2048709;29;20047;-67
2023/07/31 02:14:56;;;;;;;9.18;3.42;;;;;;;12.54;89.50;95974.19;2036298;29;20056;-66
2023/07/31 02:16:57;;;;;;;11.85;3.97;;;;;;;12.51;89.68;95971.75;2044345;29;20058;-69
2023/07/31 02:23:39;;;;;;;7.95;4.40;;;;;;;12.38;90.73;95962.09;2048047;29;20051;-67
2023/07/31 02:25:38;;;;;;;;;;;;;;;;;;;;;
2023/07/31 02:27:17;;;;;;;8.77;3.70;;;;;;;12.33;90.42;95955.38;2052593;28;20046;-68
2023/07/31 02:29:17;;;;;;;8.27;3.92;;;;;;;12.30;90.80;95957.31;2053980;28;20443;-67
2023/07/31 02:31:26;;;;;;;6.93;3.75;;;;;;;12.29;91.15;95951.25;2040630;29;20059;-66
2023/07/31 02:32:42;;;;;;;8.13;3.92;;;;;;;12.28;90.63;95956.56;2040078;29;20148;-67
2023/07/31 02:34:25;;;;;;;;;;;;;;;12.30;90.77;95946.91;2035605;29;20052;-67
2023/07/31 02:36:15;;;;;;;9.70;3.95;;;;;;;12.27;91.24;95952.25;2026634;29;19922;-66
2023/07/31 02:37:46;;;;;;;9.65;4.05;;;;;;;12.21;91.62;95955.19;2041808;29;20102;-67
2023/07/31 02:42:24;;;;;;;6.50;3.40;;;;;;;12.14;91.48;95949.50;2035741;29;20052;-67
2023/07/31 02:44:14;;;;;;;8.18;3.90;;;;;;;12.09;91.90;95951.50;2039022;29;20067;-67
2023/07/31 02:45:52;;;;;;;8.55;4.30;;;;;;;12.04;93.07;95953.50;2056942;28;20054;-67
2023/07/31 02:47:31;;;;;;;;;;;;;;;;;;;;;
2023/07/31 02:51:56;;;;;;;8.80;3.88;;;;;;;12.01;93.50;95938.91;2041697;29;20039;-67
2023/07/31 02:54:11;;;;;;;9.95;4.10;;;;;;;12.00;93.90;95939.81;2041336;29;20157;-67
2023/07/31 02:59:31;;;;;;;13.05;4.10;;;;;;;11.98;94.36;95935.63;2025603;29;20055;-66
2023/07/31 03:00:48;;;;;;;9.30;4.13;;;;;;;11.90;94.77;95925.63;2030606;29;20061;-67
2023/07/31 03:02:02;;;;;;;11.45;4.43;;;;;;;11.96;94.31;95938.28;2041616;29;20047;-66
2023/07/31 03:03:20;;;;;;;7.03;4.05;;;;;;;11.94;94.48;95937.53;2041694;29;20063;-66
2023/07/31 03:07:36;;;;;;;;;;;;;;;;;;;;;
2023/07/31 03:12:59;;;;;;;;;;;;;;;;;;;;;
2023/07/31 03:15:36;;;;;;;8.23;3.92;;;;;;;12.22;93.65;95947.31;1995531;29;20050;-66
2023/07/31 03:17:12;;;;;;;6.30;4.18;;;;;;;12.24;93.32;95940.25;2042757;29;20051;-68
2023/07/31 03:30:24;;;;;;;9.10;3.67;;;;;;;12.66;90.08;95943.16;2036453;29;20052;-67
2023/07/31 03:32:23;;;;;;;;;;;;;;;12.70;89.67;95942.91;2048066;29;20055;-67
2023/07/31 03:34:09;;;;;;;6.03;3.58;;;;;;;12.71;89.67;95943.75;2049004;28;19929;-67
2023/07/31 03:35:30;;;;;;;5.10;3.55;;;;;;;12.74;89.46;95948.78;2049597;29;20063;-67
2023/07/31 03:36:35;;;;;;;7.28;3.22;;;;;;;12.69;89.33;95933.41;2049325;29;20458;-67
2023/07/31 03:37:40;;;;;;;8.77;3.88;;;;;;;12.79;89.62;95947.59;2041289;29;20058;-67
2023/07/31 03:40:29;;;;;;;10.60;3.70;;;;;;;12.85;89.33;95949.00;2044320;29;20519;-66
2023/07/31 03:42:34;;;;;;;9.32;3.85;;;;;;;12.87;89.25;95946.31;2001160;29;20530;-67
2023/07/31 03:44:09;;;;;;;7.90;3.80;;;;;;;12.87;88.66;95946.31;2030020;29;20056;-67
2023/07/31 04:02:24;;;;;;;7.25;3.53;;;;;;;13.06;88.36;95940.88;1973413;30;20101;-67
2023/07/31 04:04:03;;;;;;;14.23;4.22;;;;;;;13.11;87.95;95942.31;1975295;29;20455;-67
2023/07/31 04:05:26;;;;;;;10.98;3.95;;;;;;;13.23;88.14;95940.72;1988409;29;20055;-67
2023/07/31 04:07:23;;;;;;;9.15;3.67;;;;;;;13.42;86.66;95937.94;1991815;29;20054;-67
2023/07/31 04:15:07;;;;;;;9.35;3.53;;;;;;;14.11;82.83;95939.81;1977389;29;20071;-67
2023/07/31 04:19:05;;;;;;;7.93;2.85;;;;;;;14.24;81.90;95931.19;1980138;30;20066;-67
2023/07/31 04:20:23;;;;;;;5.57;3.15;;;;;;;14.30;82.01;95933.41;1987217;29;20059;-68
2023/07/31 04:25:10;;;;;;;10.98;4.00;;;;;;;14.05;82.54;95918.44;2003461;29;20046;-68
2023/07/31 04:26:23;;;;;;;8.30;3.10;;;;;;;13.85;83.25;95915.31;2002019;29;20056;-68
2023/07/31 04:30:49;;;;;;;7.20;3.15;;;;;;;14.14;83.10;95920.50;2018186;29;20482;-68
2023/07/31 04:42:25;;;;;;;8.40;3.40;;;;;;;15.46;76.30;95911.09;2010068;29;20046;-68
2023/07/31 04:43:32;;;;;;;6.45;2.95;;;;;;;15.58;75.24;95912.84;2023291;29;20060;-67
2023/07/31 04:44:42;;;;;;;6.95;2.97;;;;;;;15.86;74.98;95912.66;2048406;29;20055;-67
2023/07/31 04:47:06;;;;;;;;;;;;;;;;;;;;;
2023/07/31 04:48:38;;;;;;;9.45;3.83;;;;;;;16.33;71.25;95912.88;2066575;28;20046;-68
2023/07/31 04:49:44;;;;;;;5.18;3.03;;;;;;;16.43;71.31;95915.69;2073183;28;20053;-68
2023/07/31 04:51:41;;;;;;;5.10;2.60;;;;;;;16.41;70.40;95904.47;2073223;28;20409;-68
2023/07/31 04:54:15;;;;;;;8.32;3.10;;;;;;;16.19;71.68;95918.25;2061200;28;20084;-68
2023/07/31 04:55:37;;;;;;;8.95;2.95;;;;;;;16.31;70.83;95920.03;2046917;28;20045;-68
2023/07/31 04:57:19;;;;;;;6.65;3.03;;;;;;;15.87;71.77;95911.72;2073166;28;20045;-68
2023/07/31 04:58:35;;;;;;;8.85;2.60;;;;;;;15.45;74.12;95920.72;2073216;28;20094;-67
2023/07/31 04:59:40;;;;;;;6.03;2.90;;;;;;;15.34;74.59;95923.22;2056566;28;20058;-67
2023/07/31 05:00:58;;;;;;;7.15;2.80;;;;;;;15.39;74.31;95921.13;2071780;28;20050;-68
2023/07/31 05:02:00;;;;;;;7.88;3.30;;;;;;;15.21;75.02;95923.22;2073960;28;20046;-68
2023/07/31 05:03:07;;;;;;;5.78;2.88;;;;;;;15.02;75.40;95913.09;2072881;28;20145;-67
2023/07/31 05:04:31;;;;;;;6.15;3.17;;;;;;;14.96;77.13;95930.03;2074164;28;20061;-67
2023/07/31 05:05:47;;;;;;;6.00;2.90;;;;;;;14.91;77.02;95928.69;2073966;28;20481;-67
2023/07/31 05:07:22;;;;;;;9.23;3.25;;;;;;;14.86;77.42;95925.50;2073600;28;20054;-67
2023/07/31 05:08:31;;;;;;;4.80;3.13;;;;;;;14.73;77.56;95915.88;2073534;28;20050;-68
2023/07/31 05:10:06;;;;;;;8.85;3.03;;;;;;;14.88;77.04;95929.72;2072877;28;20050;-67
2023/07/31 05:11:44;;;;;;;5.18;2.85;;;;;;;14.77;78.02;95930.41;2065535;28;20046;-67
2023/07/31 05:12:49;;;;;;;6.10;3.20;;;;;;;14.70;78.63;95912.59;2056109;28;20154;-68
2023/07/31 05:14:10;;;;;;;6.85;2.88;;;;;;;14.85;78.01;95932.53;2069637;28;20057;-69
2023/07/31 05:16:06;;;;;;;7.72;2.90;;;;;;;14.91;77.75;95928.69;2066266;28;20050;-68
2023/07/31 05:19:00;;;;;;;7.15;3.00;;;;;;;14.87;77.95;95914.97;2066126;28;20045;-68
2023/07/31 05:20:59;;;;;;;6.68;3.13;;;;;;;14.99;76.95;95934.22;2073365;28;20056;-67
2023/07/31 05:22:24;;;;;;;6.82;2.90;;;;;;;14.80;78.20;95918.09;2056498;28;20051;-68
2023/07/31 05:24:39;;;;;;;7.22;3.20;;;;;;;14.80;79.00;95939.81;2065697;28;20053;-68
2023/07/31 05:28:45;;;;;;;6.93;3.17;;;;;;;14.74;80.05;95938.44;2073087;28;20084;-68
2023/07/31 05:30:14;;;;;;;6.28;2.83;;;;;;;14.65;79.51;95938.19;2067768;28;20053;-67
2023/07/31 05:32:04;;;;;;;;;;;;;;;;;;;;;
2023/07/31 05:33:31;;;;;;;6.22;3.05;;;;;;;14.77;78.85;95932.19;2049804;28;20491;-67
2023/07/31 05:34:48;;;;;;;8.63;3.20;;;;;;;14.83;78.97;95937.00;2072976;28;20057;-67
2023/07/31 05:36:07;;;;;;;7.95;2.97;;;;;;;14.82;78.98;95942.34;2073745;28;20046;-67
2023/07/31 05:37:33;;;;;;;5.72;2.97;;;;;;;14.99;78.33;95939.47;2073581;28;20050;-68
2023/07/31 05:38:44;;;;;;;5.68;2.85;;;;;;;15.22;77.16;95935.34;2072433;28;20126;-68
2023/07/31 05:40:21;;;;;;;;;;;;;;;;;;;;;
2023/07/31 05:41:44;;;;;;;6.18;2.58;;;;;;;15.51;75.23;95932.56;2041904;29;20056;-68
2023/07/31 05:44:19;;;;;;;9.60;3.45;;;;;;;15.73;75.21;95937.19;2073564;28;20489;-68
2023/07/31 05:45:41;;;;;;;6.72;2.70;;;;;;;15.80;74.30;95933.22;2072668;28;20061;-68
2023/07/31 05:46:45;;;;;;;9.52;3.40;;;;;;;15.77;74.68;95933.41;2072957;28;20056;-68
2023/07/31 05:48:56;;;;;;;6.78;2.90;;;;;;;15.74;75.28;95928.38;2073676;28;20050;-67
2023/07/31 05:52:25;;;;;;;7.65;2.45;;;;;;;15.72;75.07;95927.69;2059125;28;20039;-67
2023/07/31 05:53:48;;;;;;;4.82;2.53;;;;;;;15.74;74.58;95923.16;2073617;28;20421;-67
2023/07/31 05:54:54;;;;;;;4.43;2.20;;;;;;;15.69;74.81;95923.47;2072309;28;20050;-67
2023/07/31 05:56:27;;;;;;;7.22;2.88;;;;;;;15.71;74.52;95920.75;2073322;28;20045;-68
2023/07/31 05:58:20;;;;;;;5.50;2.30;;;;;;;15.72;74.12;95918.03;2072469;28;20046;-67
2023/07/31 05:59:53;;;;;;;6.10;2.47;;;;;;;15.78;74.65;95919.38;2073501;28;20279;-67
2023/07/31 06:03:06;;;;;;;7.20;2.60;;;;;;;15.86;73.84;95902.19;2072579;28;20111;-66
2023/07/31 06:04:31;;;;;;;5.90;2.25;;;;;;;15.94;74.24;95913.94;2073027;28;20050;-68
2023/07/31 06:05:52;;;;;;;5.68;2.28;;;;;;;15.94;73.88;95922.63;2072324;28;20046;-67
2023/07/31 06:10:09;;;;;;;7.72;2.80;;;;;;;16.08;73.43;95922.47;2038779;28;20525;-67
2023/07/31 06:11:18;;;;;;;4.85;2.38;;;;;;;16.00;73.55;95909.09;2064018;28;20046;-67
2023/07/31 06:13:33;;;;;;;;;;;;;;;;;;;;;
2023/07/31 06:21:05;;;;;;;6.57;2.10;;;;;;;16.31;71.84;95912.16;2044875;29;20047;-66
2023/07/31 06:29:49;;;;;;;6.43;2.75;;;;;;;16.79;69.06;95888.63;2018320;29;20085;-67
2023/07/31 06:31:06;;;;;;;4.97;2.08;;;;;;;16.95;69.76;95904.91;2012446;29;20045;-68
2023/07/31 06:32:08;;;;;;;7.15;2.17;;;;;;;17.06;69.01;95901.47;2022569;29;20056;-67
2023/07/31 06:33:15;;;;;;;6.35;2.17;;;;;;;17.13;68.49;95905.31;2025827;29;20064;-69
2023/07/31 06:34:17;;;;;;;4.50;2.15;;;;;;;17.39;67.43;95900.72;2026336;29;20060;-68
2023/07/31 06:36:14;;;;;;;4.80;1.90;;;;;;;17.45;66.45;95902.03;2034883;29;20059;-67
2023/07/31 06:37:21;;;;;;;6.55;2.25;;;;;;;17.55;67.07;95902.19;2041820;29;20181;-67
2023/07/31 06:38:26;;;;;;;5.22;2.38;;;;;;;17.67;66.54;95903.88;2042016;29;20067;-67
2023/07/31 06:39:48;;;;;;;4.78;2.05;;;;;;;17.83;65.90;95898.31;2041901;29;20075;-69
2023/07/31 06:40:49;;;;;;;6.20;1.90;;;;;;;18.13;65.16;95900.31;2041301;29;20062;-68
2023/07/31 06:41:59;;;;;;;4.28;2.10;;;;;;;18.44;64.29;95905.75;2050229;28;20092;-68
2023/07/31 06:43:07;;;;;;;5.90;2.28;;;;;;;18.86;62.54;95913.81;2074850;28;20049;-67
2023/07/31 06:46:09;;;;;;;5.25;2.33;;;;;;;18.82;62.58;95904.47;2074517;28;20053;-67
2023/07/31 06:47:35;;;;;;;4.80;2.28;;;;;;;18.68;62.58;95911.69;2073793;28;20053;-67
2023/07/31 06:48:41;;;;;;;5.57;2.40;;;;;;;18.53;63.72;95910.28;2074171;28;20387;-68
2023/07/31 06:49:55;;;;;;;7.90;2.40;;;;;;;18.65;63.58;95909.28;2074872;28;20072;-67
2023/07/31 06:51:17;;;;;;;7.65;2.50;;;;;;;18.69;63.52;95905.47;2072349;28;20069;-67
2023/07/31 06:52:52;;;;;;;5.30;2.38;;;;;;;18.78;62.15;95906.53;2074570;28;20486;-67
2023/07/31 06:54:06;;;;;;;5.38;2.13;;;;;;;18.71;63.48;95908.81;2074484;28;20042;-68
2023/07/31 06:57:32;;;;;;;6.55;2.00;;;;;;;18.50;64.23;95918.44;2074118;28;20050;-67
2023/07/31 06:59:16;;;;;;;2.85;1.90;;;;;;;18.23;64.34;95913.53;2073326;28;20061;-68
2023/07/31 07:00:42;;;;;;;7.45;2.58;;;;;;;17.94;65.31;95898.31;2073587;28;20052;-66
2023/07/31 07:01:48;;;;;;;8.35;2.20;;;;;;;18.20;65.02;95913.78;2065973;28;20508;-67
2023/07/31 07:02:53;;;;;;;6.60;2.30;;;;;;;18.55;64.49;95905.75;2074379;28;20054;-67
2023/07/31 07:04:19;;;;;;;4.32;2.17;;;;;;;18.81;62.76;95914.16;2074553;28;20042;-67
2023/07/31 07:05:28;;;;;;;4.07;1.85;;;;;;;18.69;62.98;95909.88;2074911;28;20054;-67
2023/07/31 07:06:55;;;;;;;4.45;1.90;;;;;;;18.84;62.16;95906.03;2074693;28;20501;-67
2023/07/31 07:08:08;;;;;;;4.88;1.83;;;;;;;18.88;61.61;95910.09;2074364;28;20050;-67
2023/07/31 07:09:19;;;;;;;3.92;2.00;;;;;;;18.75;61.80;95900.69;2074825;28;20054;-67
2023/07/31 07:10:23;;;;;;;4.43;2.13;;;;;;;18.76;62.46;95907.63;2074488;28;20058;-67
2023/07/31 07:11:45;;;;;;;4.90;2.10;;;;;;;19.10;61.70;95914.41;2074336;28;20501;-67
2023/07/31 07:13:25;;;;;;;4.40;1.88;;;;;;;19.31;60.91;95906.53;2073913;28;20053;-68
2023/07/31 07:15:00;;;;;;;5.70;2.20;;;;;;;19.31;60.51;95903.06;2059475;28;20058;-67
2023/07/31 07:16:10;;;;;;;3.40;1.73;;;;;;;19.22;60.57;95907.31;2074634;28;20375;-67
2023/07/31 07:20:52;;;;;;;5.38;1.80;;;;;;;19.16;61.17;95903.41;2074135;28;20516;-67
2023/07/31 07:22:05;;;;;;;6.60;2.00;;;;;;;19.41;59.63;95882.91;2059088;28;20445;-67
2023/07/31 07:23:11;;;;;;;4.53;1.85;;;;;;;19.66;58.18;95892.22;2074095;28;20469;-67
2023/07/31 07:24:31;;;;;;;3.25;1.50;;;;;;;20.13;56.57;95889.94;2073909;28;20049;-67
2023/07/31 07:25:38;;;;;;;4.28;2.03;;;;;;;20.76;56.15;95894.94;2074511;28;20054;-68
2023/07/31 07:26:53;;;;;;;;;;;;;;;;;;;;;
2023/07/31 07:28:02;;;;;;;3.28;1.90;;;;;;;21.60;53.22;95894.38;2074452;28;20053;-68
2023/07/31 07:29:19;;;;;;;6.18;2.03;;;;;;;21.67;50.70;95879.59;2074444;28;20077;-67
2023/07/31 07:30:25;;;;;;;;;;;;;;;21.43;51.29;95879.25;2074604;28;20042;-68
2023/07/31 07:32:20;;;;;;;;;;;;;;;;;;;;;
2023/07/31 07:33:27;;;;;;;4.63;2.10;;;;;;;21.54;51.39;95884.38;2066526;28;20433;-67
2023/07/31 07:35:13;;;;;;;4.03;1.48;;;;;;;21.28;50.35;95884.94;2077367;28;20045;-66
2023/07/31 07:36:37;;;;;;;6.80;1.60;;;;;;;21.37;50.27;95877.97;2074627;28;20508;-67
2023/07/31 07:38:22;;;;;;;4.32;1.60;;;;;;;20.95;51.09;95888.84;2074782;28;20053;-67
2023/07/31 07:39:55;;;;;;;4.88;1.80;;;;;;;20.20;52.41;95862.06;2074478;28;20049;-67
2023/07/31 07:41:09;;;;;;;4.40;1.80;;;;;;;19.79;54.48;95882.31;2074231;28;20080;-66
2023/07/31 07:42:20;;;;;;;5.68;1.80;;;;;;;19.70;54.80;95869.94;2073998;28;20049;-67
2023/07/31 07:44:05;;;;;;;6.25;1.90;;;;;;;19.64;53.07;95885.38;2069297;28;20065;-66
2023/07/31 07:45:27;;;;;;;2.92;1.60;;;;;;;19.31;55.03;95877.56;2046559;28;20051;-67
2023/07/31 07:46:37;;;;;;;4.03;1.45;;;;;;;18.86;55.63;95879.59;2048709;29;20062;-65
2023/07/31 07:47:43;;;;;;;3.97;1.58;;;;;;;18.81;57.25;95890.50;2048697;29;20051;-66
2023/07/31 07:48:44;;;;;;;4.47;1.95;;;;;;;18.87;57.64;95884.75;2048580;29;20392;-65
2023/07/31 07:50:11;;;;;;;5.55;1.58;;;;;;;18.82;58.42;95894.81;2049536;28;20067;-65
2023/07/31 07:52:06;;;;;;;8.45;2.00;;;;;;;18.95;57.61;95892.84;2033955;29;20068;-65
2023/07/31 07:53:52;;;;;;;5.38;2.03;;;;;;;18.95;57.18;95886.72;2033306;29;20060;-66
2023/07/31 07:55:20;;;;;;;3.97;1.60;;;;;;;18.81;57.47;95887.03;2054941;28;20102;-66
2023/07/31 07:56:36;;;;;;;3.42;1.88;;;;;;;18.87;56.74;95887.38;2065967;28;20494;-66
2023/07/31 07:58:24;;;;;;;4.07;1.70;;;;;;;18.91;57.46;95888.78;2065889;28;20050;-65
2023/07/31 08:04:12;;;;;;;5.28;2.10;;;;;;;18.94;58.22;95892.97;2041323;29;20052;-66
2023/07/31 08:05:14;;;;;;;3.80;1.60;;;;;;;18.84;57.73;95878.88;2040825;29;20051;-66
2023/07/31 08:06:16;;;;;;;6.75;2.00;;;;;;;18.67;58.10;95877.59;2041720;28;20064;-66
2023/07/31 08:07:17;;;;;;;4.90;1.80;;;;;;;18.63;58.99;95882.28;2065365;28;20046;-66
2023/07/31 08:08:19;;;;;;;5.38;1.65;;;;;;;18.65;59.19;95882.16;2064838;28;20061;-65
2023/07/31 08:09:20;;;;;;;4.65;1.67;;;;;;;18.51;60.63;95894.63;2065690;28;20050;-66
2023/07/31 08:10:25;;;;;;;6.13;2.08;;;;;;;18.58;61.08;95889.72;2065963;28;20049;-66
2023/07/31 08:11:30;;;;;;;4.40;1.95;;;;;;;18.43;60.38;95890.94;2065116;28;20049;-65
2023/07/31 08:12:33;;;;;;;4.80;2.08;;;;;;;18.41;60.73;95893.69;2065269;28;20054;-66
2023/07/31 08:13:36;;;;;;;5.55;2.00;;;;;;;18.47;61.81;95898.47;2066118;28;20058;-66
2023/07/31 08:14:55;;;;;;;5.80;2.00;;;;;;;18.55;60.98;95897.84;2065798;28;20058;-66
2023/07/31 08:15:57;;;;;;;3.75;1.75;;;;;;;18.73;60.63;95898.13;2065983;28;20042;-66
2023/07/31 08:17:07;;;;;;;3.55;2.00;;;;;;;18.78;60.03;95895.19;2065538;28;20042;-65
2023/07/31 08:18:09;;;;;;;6.15;1.80;;;;;;;18.90;59.29;95897.66;2065563;28;20475;-66
2023/07/31 08:19:11;;;;;;;3.28;1.80;;;;;;;19.00;58.94;95900.34;2066079;28;20043;-66
2023/07/31 08:20:16;;;;;;;4.18;1.80;;;;;;;19.18;58.28;95901.44;2065939;28;20057;-66
2023/07/31 08:21:28;;;;;;;2.90;1.95;;;;;;;19.35;58.41;95902.69;2066044;28;20046;-67
2023/07/31 08:22:39;;;;;;;6.85;1.98;;;;;;;19.67;58.18;95898.31;2065925;28;20054;-66
2023/07/31 08:23:40;;;;;;;5.50;2.00;;;;;;;19.64;56.79;95894.13;2065880;28;20043;-66
2023/07/31 08:24:56;;;;;;;6.28;2.30;;;;;;;19.69;56.56;95901.66;2065879;28;20527;-66
2023/07/31 08:26:08;;;;;;;3.47;1.52;;;;;;;19.80;55.59;95897.13;2066026;28;20054;-65
2023/07/31 08:27:10;;;;;;;5.68;1.80;;;;;;;19.86;56.10;95897.56;2065952;28;20129;-67
2023/07/31 08:29:51;;;;;;;4.72;1.75;;;;;;;19.99;54.74;95879.75;2065686;28;20077;-65
2023/07/31 08:30:53;;;;;;;4.10;1.88;;;;;;;20.21;54.64;95897.19;2065264;28;20109;-66
2023/07/31 08:31:54;;;;;;;6.22;1.90;;;;;;;20.34;55.07;95887.22;2073175;28;20046;-66
2023/07/31 08:33:05;;;;;;;5.88;1.90;;;;;;;20.70;53.55;95892.88;2065379;28;20054;-66
2023/07/31 08:34:06;;;;;;;7.07;2.42;;;;;;;20.87;53.15;95893.97;2066066;28;20046;-66
2023/07/31 08:35:10;;;;;;;7.53;2.05;;;;;;;20.74;51.98;95896.88;2065955;28;20057;-65
2023/07/31 08:36:20;;;;;;;4.45;1.73;;;;;;;20.62;52.68;95898.81;2065940;28;20058;-66
2023/07/31 08:37:27;;;;;;;5.47;2.33;;;;;;;20.54;52.64;95890.75;2065908;28;20090;-66
2023/07/31 08:41:05;;;;;;;3.63;1.52;;;;;;;21.39;50.54;95891.09;2057143;28;20478;-65
2023/07/31 08:42:30;;;;;;;5.35;1.80;;;;;;;22.04;48.98;95889.34;2065631;28;20414;-67
2023/07/31 08:44:18;;;;;;;;;;;;;;;;;;;;;
2023/07/31 08:50:13;;;;;;;3.35;1.85;;;;;;;21.70;48.58;95868.75;2073296;28;20422;-66
2023/07/31 08:51:24;;;;;;;4.55;2.10;;;;;;;21.48;48.97;95887.59;2064758;28;20054;-66
2023/07/31 08:53:10;;;;;;;;;;;;;;;;;;;;;
2023/07/31 08:57:48;;;;;;;4.63;1.67;;;;;;;20.83;51.51;95866.22;2066543;28;20054;-66
2023/07/31 08:58:50;;;;;;;5.53;2.63;;;;;;;20.83;50.88;95859.13;2073056;28;20045;-66
2023/07/31 08:59:52;;;;;;;3.92;1.60;;;;;;;20.58;51.12;95871.06;2073132;28;20057;-67
2023/07/31 09:00:54;;;;;;;4.18;1.60;;;;;;;20.28;51.47;95870.13;2056887;28;20054;-65
2023/07/31 09:01:56;;;;;;;4.10;1.73;;;;;;;20.22;50.98;95867.19;2049446;28;20054;-65
2023/07/31 09:03:08;;;;;;;3.75;1.73;;;;;;;20.09;52.32;95856.06;2064829;28;20058;-66
2023/07/31 09:04:09;;;;;;;5.60;2.20;;;;;;;20.32;51.69;95865.44;2065447;28;20057;-66
2023/07/31 09:05:11;;;;;;;4.85;1.52;;;;;;;20.36;50.96;95872.09;2065745;28;20046;-65
2023/07/31 09:06:12;;;;;;;7.88;2.15;;;;;;;20.59;50.61;95866.63;2065058;28;20046;-66
2023/07/31 09:07:14;;;;;;;6.75;1.83;;;;;;;20.75;50.49;95866.91;2072558;28;20509;-65
2023/07/31 09:08:19;;;;;;;4.15;1.85;;;;;;;21.00;50.58;95862.03;2065298;28;20069;-66
2023/07/31 09:09:20;;;;;;;4.93;2.40;;;;;;;21.38;49.72;95876.19;2072841;28;20057;-66
2023/07/31 09:10:22;;;;;;;4.65;1.88;;;;;;;21.41;49.17;95871.47;2064927;28;20054;-66
2023/07/31 09:11:24;;;;;;;7.30;2.10;;;;;;;21.79;47.80;95862.59;2065134;28;20061;-67
2023/07/31 09:12:25;;;;;;;6.22;1.90;;;;;;;22.22;47.18;95852.44;2064208;28;20057;-66
2023/07/31 09:13:28;;;;;;;3.95;1.90;;;;;;;22.47;47.00;95872.03;2064244;28;20070;-67
2023/07/31 09:14:30;;;;;;;6.03;1.90;;;;;;;22.58;46.22;95855.94;2064986;28;20054;-67
2023/07/31 09:15:31;;;;;;;4.38;1.98;;;;;;;22.10;47.29;95866.78;2065012;28;20053;-66
2023/07/31 09:16:32;;;;;;;6.30;1.70;;;;;;;21.92;47.52;95856.13;2072678;28;20065;-66
2023/07/31 09:17:36;;;;;;;4.07;1.90;;;;;;;21.15;48.40;95858.00;2065159;28;20061;-66
2023/07/31 09:18:56;;;;;;;7.47;1.80;;;;;;;21.52;48.15;95858.09;2065182;28;20063;-65
2023/07/31 09:19:58;;;;;;;5.82;2.60;;;;;;;21.59;48.45;95861.00;2073651;28;20061;-65
2023/07/31 09:21:05;;;;;;;6.15;2.10;;;;;;;21.51;47.79;95863.53;2064563;28;20065;-66
2023/07/31 09:22:07;;;;;;;5.60;2.30;;;;;;;21.44;48.66;95850.06;2065850;28;20038;-65
2023/07/31 09:23:12;;;;;;;7.00;1.98;;;;;;;21.11;48.93;95852.16;2073799;28;20049;-66
2023/07/31 09:24:29;;;;;;;2.67;1.60;;;;;;;20.75;49.04;95859.00;2073863;28;20046;-66
2023/07/31 09:25:31;;;;;;;4.15;1.73;;;;;;;20.35;50.73;95837.97;2072715;28;20054;-67
2023/07/31 09:26:34;;;;;;;6.40;2.15;;;;;;;20.47;50.42;95864.06;2073364;28;20053;-66
2023/07/31 09:28:08;;;;;;;4.70;2.10;;;;;;;21.02;50.00;95855.66;2072885;28;20061;-66
2023/07/31 09:29:18;;;;;;;6.60;2.00;;;;;;;21.71;48.73;95853.75;2073357;28;20046;-67
2023/07/31 09:30:20;;;;;;;4.10;1.70;;;;;;;21.68;48.38;95854.88;2073619;28;20054;-66
2023/07/31 09:31:34;;;;;;;3.60;2.00;;;;;;;21.94;48.24;95846.25;2073750;28;20042;-66
2023/07/31 09:32:35;;;;;;;4.40;1.58;;;;;;;21.89;48.12;95851.16;2065142;28;20061;-67
2023/07/31 09:33:54;;;;;;;5.97;2.47;;;;;;;21.59;48.77;95855.72;2064636;28;20050;-65
2023/07/31 09:34:56;;;;;;;4.70;1.98;;;;;;;21.81;47.93;95846.59;2072490;28;20046;-65
2023/07/31 09:35:59;;;;;;;3.88;1.58;;;;;;;22.17;46.16;95852.84;2072962;28;20054;-65
2023/07/31 09:37:01;;;;;;;4.72;1.83;;;;;;;22.15;46.90;95833.63;2074012;28;20488;-66
2023/07/31 09:38:35;;;;;;;6.30;2.65;;;;;;;22.30;47.08;95843.75;2073010;28;20066;-66
2023/07/31 09:39:54;;;;;;;4.05;1.75;;;;;;;22.07;47.82;95840.63;2072999;28;20046;-66
2023/07/31 09:40:55;;;;;;;;;;;;;;;22.13;47.15;95834.75;2073883;28;20533;-66
2023/07/31 09:42:13;;;;;;;5.95;2.10;;;;;;;21.92;47.16;95833.22;2064681;28;19920;-66
2023/07/31 09:43:22;;;;;;;4.07;1.92;;;;;;;21.58;47.52;95830.28;2067133;28;20043;-65
2023/07/31 09:44:43;;;;;;;4.50;1.92;;;;;;;21.85;48.33;95834.75;2074148;28;20057;-66
2023/07/31 09:45:44;;;;;;;5.68;2.22;;;;;;;22.26;47.04;95822.03;2075603;28;20046;-66
2023/07/31 09:46:49;;;;;;;5.70;1.58;;;;;;;22.35;46.68;95825.63;2067172;28;20053;-66
2023/07/31 09:47:51;;;;;;;4.97;2.10;;;;;;;22.23;46.88;95832.94;2066712;28;20050;-66
2023/07/31 09:49:19;;;;;;;4.72;2.08;;;;;;;22.70;46.01;95827.47;2067123;28;20046;-66
2023/07/31 09:50:22;;;;;;;4.38;1.95;;;;;;;22.76;44.51;95824.19;2066918;28;20050;-65
2023/07/31 09:51:27;;;;;;;5.38;2.10;;;;;;;23.06;44.03;95799.16;2066086;28;20061;-65
2023/07/31 09:52:29;;;;;;;2.72;1.80;;;;;;;22.88;45.30;95808.91;2066900;28;20046;-66
2023/07/31 09:53:30;;;;;;;3.60;2.03;;;;;;;23.56;43.73;95805.63;2065960;28;20053;-66
2023/07/31 09:54:32;;;;;;;3.13;1.63;;;;;;;23.74;43.60;95803.75;2067200;28;20050;-65
2023/07/31 09:55:37;;;;;;;4.68;1.35;;;;;;;23.55;43.86;95788.88;2066869;28;20046;-65
2023/07/31 09:56:46;;;;;;;7.00;2.20;;;;;;;23.07;45.44;95803.47;2067287;28;20054;-66
2023/07/31 09:57:51;;;;;;;4.10;1.90;;;;;;;23.15;43.42;95801.88;2067114;28;20054;-66
2023/07/31 09:58:53;;;;;;;4.55;2.10;;;;;;;23.10;43.82;95800.53;2066891;28;20054;-67
2023/07/31 09:59:55;;;;;;;3.38;1.95;;;;;;;23.60;42.78;95795.53;2058420;28;20054;-66
2023/07/31 10:00:57;;;;;;;4.82;1.70;;;;;;;23.71;42.77;95796.13;2050696;28;20455;-66
2023/07/31 10:01:59;;;;;;;4.43;2.00;;;;;;;24.08;42.64;95794.94;2058388;28;20530;-66